Novorossiysk, Russia
Current Conditions -  °F | °C
As of 5:00 PM on Wednesday 26 Nov 2014 (Local Time) from URKA Reporting Station
Scattered Clouds Scattered Clouds  
Wind Chill: 22°   Ceiling: Unl
Heat Index: 32°   Visibility: 6mi
Dew Point: 28°   Wind: 13mph
Humidity: 87%   Direction: 60°ENE
Pressure: 30.06"   Gusts: NA
Location:  44.72°N, 37.77°E
Report Text: URKA 261400Z 06006MPS 9999 FEW010 SCT110 00/M02 Q1018 NOSIG RMKQFE760/1013 SC070
Loading
Personal Weather Stations






























Interactive Weather Map New forecast layout! Learn more

10-Day Weather Forecast

Advertisements
Track Severe Weather on mobile